Time;durP1;ratioP1;P1;durP2;ratioP2;P2;SDS_P1;SDS_P2;PMS_P1;PMS_P2;Temp;Humidity;BMP_temperature;BMP_pressure;BME280_temperature;BME280_humidity;BME280_pressure;Samples;Min_cycle;Max_cycle;Signal;HPM_P1;HPM_P2
2022/12/13 00:01:33;;;;;;;0.10;0.10;;;;;;;0.85;75.63;100223.25;7358617;19;20704;-58
2022/12/13 00:04:01;;;;;;;0.00;0.00;;;;;;;0.97;75.69;100233.66;7357637;19;20417;-58
2022/12/13 00:06:27;;;;;;;0.03;0.03;;;;;;;0.98;75.59;100240.50;7356651;19;20360;-58
2022/12/13 00:08:53;;;;;;;0.00;0.00;;;;;;;1.00;75.67;100233.66;7358572;19;20854;-58
2022/12/13 00:11:19;;;;;;;0.10;0.10;;;;;;;0.80;75.75;100202.63;7359299;19;20018;-58
2022/12/13 00:13:46;;;;;;;0.10;0.10;;;;;;;1.00;75.78;100233.66;7359309;19;20040;-59
2022/12/13 00:16:17;;;;;;;0.00;0.00;;;;;;;0.99;75.63;100232.78;7358370;19;20350;-57
2022/12/13 00:18:46;;;;;;;0.10;0.10;;;;;;;0.99;75.80;100234.50;7358775;19;20017;-57
2022/12/13 00:21:15;;;;;;;0.10;0.10;;;;;;;0.99;75.74;100239.66;7356710;19;20894;-58
2022/12/13 00:23:40;;;;;;;0.10;0.10;;;;;;;0.90;75.44;100232.72;7359599;19;21465;-57
2022/12/13 00:26:10;;;;;;;0.10;0.10;;;;;;;0.97;75.82;100244.78;7354172;19;20015;-57
2022/12/13 00:28:36;;;;;;;0.10;0.10;;;;;;;0.90;75.53;100227.56;7349832;19;20014;-58
2022/12/13 00:31:02;;;;;;;0.10;0.10;;;;;;;0.98;75.91;100235.38;7359645;19;20446;-58
2022/12/13 00:33:28;;;;;;;0.10;0.10;;;;;;;0.88;75.95;100218.13;7356788;19;20010;-58
2022/12/13 00:35:54;;;;;;;0.05;0.05;;;;;;;0.94;75.99;100228.47;7356701;19;20030;-57
2022/12/13 00:38:20;;;;;;;0.03;0.03;;;;;;;0.99;75.71;100234.50;7356350;19;20006;-58
2022/12/13 00:40:46;;;;;;;0.10;0.10;;;;;;;0.92;75.83;100219.91;7359131;19;22244;-58
2022/12/13 00:43:11;;;;;;;0.00;0.00;;;;;;;1.03;76.04;100236.25;7352199;19;20034;-59
2022/12/13 00:45:37;;;;;;;0.00;0.00;;;;;;;0.98;75.61;100219.94;7355037;19;20002;-58
2022/12/13 00:48:03;;;;;;;0.00;0.00;;;;;;;1.00;75.52;100219.09;7356649;19;20034;-58
2022/12/13 00:50:29;;;;;;;0.05;0.05;;;;;;;0.73;75.68;100168.31;7356666;19;20769;-58
2022/12/13 00:52:54;;;;;;;0.10;0.10;;;;;;;1.06;75.77;100217.41;7355641;19;20018;-59
2022/12/13 00:55:20;;;;;;;0.00;0.00;;;;;;;1.20;75.95;100232.09;7356052;19;20715;-56
2022/12/13 00:57:45;;;;;;;0.00;0.00;;;;;;;1.24;75.62;100228.72;7356965;19;20018;-58
2022/12/13 01:00:11;;;;;;;0.00;0.00;;;;;;;1.32;75.72;100240.75;7357094;19;20030;-59
2022/12/13 01:02:37;;;;;;;0.10;0.10;;;;;;;1.39;75.85;100243.41;7356006;19;20089;-58
2022/12/13 01:05:02;;;;;;;0.00;0.00;;;;;;;1.43;75.53;100242.56;7354805;19;20122;-58
2022/12/13 01:07:28;;;;;;;0.00;0.00;;;;;;;1.33;75.45;100217.63;7356450;19;20086;-58
2022/12/13 01:09:53;;;;;;;0.10;0.10;;;;;;;1.37;75.31;100209.09;7354671;19;20454;-58
2022/12/13 01:12:18;;;;;;;0.00;0.00;;;;;;;1.37;75.45;100208.22;7357596;19;20007;-64
2022/12/13 01:14:44;;;;;;;0.00;0.00;;;;;;;1.56;75.05;100230.63;7357444;19;20038;-58
2022/12/13 01:17:09;;;;;;;0.10;0.10;;;;;;;1.60;75.38;100232.38;7358870;19;20006;-58
2022/12/13 01:19:35;;;;;;;0.00;0.00;;;;;;;1.68;75.40;100241.03;7355259;19;20011;-57
2022/12/13 01:22:04;;;;;;;0.03;0.03;;;;;;;1.65;75.32;100230.69;7353855;19;20015;-57
2022/12/13 01:24:30;;;;;;;0.10;0.10;;;;;;;1.76;75.31;100244.47;7357890;19;20025;-58
2022/12/13 01:26:56;;;;;;;0.08;0.08;;;;;;;1.80;75.35;100243.66;7362307;19;20027;-58
2022/12/13 01:29:22;;;;;;;0.08;0.08;;;;;;;1.80;75.11;100235.94;7364679;19;20010;-58
2022/12/13 01:31:49;;;;;;;0.00;0.00;;;;;;;1.87;74.97;100241.09;7365314;19;20742;-58
2022/12/13 01:34:17;;;;;;;0.03;0.03;;;;;;;1.92;74.64;100244.56;7362805;19;21225;-58
2022/12/13 01:36:44;;;;;;;0.10;0.10;;;;;;;1.92;74.87;100242.00;7365120;19;20031;-59
2022/12/13 01:39:11;;;;;;;0.10;0.10;;;;;;;1.99;74.73;100251.50;7362067;19;20018;-58
2022/12/13 01:41:37;;;;;;;0.10;0.10;;;;;;;1.99;75.00;100242.03;7363146;19;21045;-57
2022/12/13 01:44:05;;;;;;;0.08;0.08;;;;;;;1.95;74.61;100232.56;7363522;19;20021;-58
2022/12/13 01:46:33;;;;;;;0.00;0.00;;;;;;;2.03;74.53;100242.94;7363605;19;20035;-57
2022/12/13 01:49:09;;;;;;;0.00;0.00;;;;;;;2.06;74.35;100242.94;7360870;19;20093;-58
2022/12/13 01:51:40;;;;;;;0.00;0.00;;;;;;;2.10;74.77;100249.81;7361813;19;20869;-59
2022/12/13 01:54:09;;;;;;;0.10;0.10;;;;;;;2.11;74.73;100246.38;7360212;19;20448;-58
2022/12/13 01:56:42;;;;;;;0.10;0.10;;;;;;;1.73;74.68;100181.84;7362531;19;20118;-59
2022/12/13 01:59:11;;;;;;;0.08;0.08;;;;;;;2.02;74.45;100225.72;7362283;19;20021;-58
2022/12/13 02:01:37;;;;;;;0.10;0.10;;;;;;;1.74;74.22;100199.88;7360087;19;21128;-58
2022/12/13 02:04:03;;;;;;;0.10;0.10;;;;;;;1.98;74.19;100211.16;7363063;19;20085;-58
2022/12/13 02:06:42;;;;;;;0.10;0.10;;;;;;;2.17;74.25;100240.38;7359025;19;20002;-58
2022/12/13 02:09:09;;;;;;;0.10;0.10;;;;;;;2.08;74.09;100225.78;7357455;19;20021;-58
2022/12/13 02:11:38;;;;;;;0.10;0.10;;;;;;;2.13;74.33;100242.13;7363303;19;20010;-57
2022/12/13 02:14:04;;;;;;;0.00;0.00;;;;;;;2.10;74.27;100244.66;7368274;19;20010;-56
2022/12/13 02:17:16;;;;;;;0.00;0.00;;;;;;;2.10;74.09;100239.50;7363317;19;20006;-58
2022/12/13 02:19:47;;;;;;;0.10;0.10;;;;;;;2.05;74.29;100247.22;7263785;19;2004442;-58
2022/12/13 02:22:43;;;;;;;0.05;0.05;;;;;;;2.00;73.95;100242.91;7364039;19;20019;-56
2022/12/13 02:25:11;;;;;;;0.00;0.00;;;;;;;1.94;74.22;100248.03;7263720;19;2004485;-56
2022/12/13 02:27:58;;;;;;;0.00;0.00;;;;;;;1.89;74.06;100244.56;7368082;19;20029;-58
2022/12/13 02:30:33;;;;;;;0.08;0.08;;;;;;;1.73;74.37;100236.75;7365204;19;20111;-58
2022/12/13 02:33:41;;;;;;;0.10;0.10;;;;;;;1.39;73.97;100180.81;7362975;19;20017;-58
2022/12/13 02:36:12;;;;;;;0.00;0.00;;;;;;;1.73;74.21;100247.06;7261900;19;2004571;-58
2022/12/13 02:38:53;;;;;;;0.00;0.00;;;;;;;1.69;74.21;100250.47;7366847;19;20021;-58
2022/12/13 02:41:22;;;;;;;0.10;0.10;;;;;;;1.65;74.43;100256.44;7364768;19;20014;-58
2022/12/13 02:44:04;;;;;;;0.10;0.10;;;;;;;1.59;74.23;100251.25;7364915;19;20521;-57
2022/12/13 02:46:34;;;;;;;0.03;0.03;;;;;;;1.58;74.42;100270.13;7368569;19;20641;-57
2022/12/13 02:49:02;;;;;;;0.10;0.10;;;;;;;1.49;74.56;100258.06;7356142;19;20338;-57
2022/12/13 02:51:29;;;;;;;0.10;0.10;;;;;;;1.40;74.62;100244.25;7364896;19;20014;-59
2022/12/13 02:53:54;;;;;;;0.00;0.00;;;;;;;1.49;74.73;100265.78;7363024;19;20006;-57
2022/12/13 02:56:20;;;;;;;0.05;0.05;;;;;;;1.44;74.56;100261.44;7365278;19;20767;-57
2022/12/13 02:58:49;;;;;;;0.10;0.10;;;;;;;1.48;74.77;100268.34;7353836;19;20056;-58
2022/12/13 03:01:42;;;;;;;0.00;0.00;;;;;;;1.47;74.60;100264.91;7363758;19;20024;-57
2022/12/13 03:04:26;;;;;;;0.00;0.00;;;;;;;1.46;74.86;100264.88;7259395;19;2004599;-58
2022/12/13 03:07:06;;;;;;;0.10;0.10;;;;;;;1.41;74.76;100258.84;7364082;19;20006;-57
2022/12/13 03:09:43;;;;;;;0.00;0.00;;;;;;;1.42;74.62;100257.97;7362099;19;20465;-57
2022/12/13 03:15:20;;;;;;;0.00;0.00;;;;;;;1.38;75.00;100267.41;7257190;19;2004302;-58
2022/12/13 03:17:54;;;;;;;0.10;0.10;;;;;;;1.41;74.92;100271.69;7363507;19;20011;-57
2022/12/13 03:20:24;;;;;;;0.10;0.10;;;;;;;1.39;74.77;100265.69;7360717;19;20010;-57
2022/12/13 03:22:50;;;;;;;0.03;0.03;;;;;;;1.39;75.02;100271.69;7363138;19;20048;-57
2022/12/13 03:25:16;;;;;;;0.10;0.10;;;;;;;1.38;74.95;100271.69;7362500;19;20018;-58
2022/12/13 03:27:41;;;;;;;0.10;0.10;;;;;;;1.36;75.17;100263.09;7363495;19;20667;-57
2022/12/13 03:30:07;;;;;;;0.10;0.10;;;;;;;1.40;75.20;100276.00;7361196;19;20006;-59
2022/12/13 03:32:33;;;;;;;0.00;0.00;;;;;;;1.31;75.08;100257.91;7364233;19;20039;-59
2022/12/13 03:34:58;;;;;;;0.10;0.10;;;;;;;1.39;75.04;100268.25;7359512;19;20014;-58
2022/12/13 03:37:24;;;;;;;0.05;0.05;;;;;;;1.37;75.05;100269.94;7363575;19;20461;-59
2022/12/13 03:39:49;;;;;;;0.10;0.10;;;;;;;1.40;75.32;100276.00;7362756;19;20018;-58
2022/12/13 03:42:16;;;;;;;0.10;0.10;;;;;;;1.26;75.07;100245.00;7360262;19;20504;-58
2022/12/13 03:44:42;;;;;;;0.10;0.10;;;;;;;1.28;74.93;100245.91;7359467;19;20671;-58
2022/12/13 03:47:07;;;;;;;0.05;0.05;;;;;;;1.42;74.96;100268.28;7360222;19;20014;-59
2022/12/13 03:49:32;;;;;;;0.10;0.10;;;;;;;1.04;74.99;100199.41;7364335;19;20011;-57
2022/12/13 03:51:58;;;;;;;0.10;0.10;;;;;;;1.44;74.97;100256.31;7357708;19;20372;-58
2022/12/13 03:54:23;;;;;;;0.10;0.10;;;;;;;1.48;75.33;100252.91;7362823;19;20597;-57
2022/12/13 03:56:49;;;;;;;0.10;0.10;;;;;;;1.54;75.12;100263.22;7362396;19;20068;-58
2022/12/13 03:59:14;;;;;;;0.10;0.10;;;;;;;1.43;75.31;100231.44;7362244;19;20006;-58
2022/12/13 04:01:39;;;;;;;0.10;0.10;;;;;;;1.50;75.25;100251.19;7361981;19;20024;-58
2022/12/13 04:04:05;;;;;;;0.05;0.05;;;;;;;1.56;74.89;100251.22;7347054;19;20010;-58
2022/12/13 04:06:30;;;;;;;0.00;0.00;;;;;;;1.64;74.74;100253.88;7362571;19;19999;-57
2022/12/13 04:08:56;;;;;;;0.10;0.10;;;;;;;1.57;74.70;100247.78;7362216;19;20006;-59
2022/12/13 04:14:05;;;;;;;0.00;0.00;;;;;;;1.63;75.04;100241.84;7362703;19;20659;-56
2022/12/13 04:16:31;;;;;;;0.10;0.10;;;;;;;1.47;74.86;100216.03;7363793;19;21920;-59
2022/12/13 04:18:56;;;;;;;0.00;0.00;;;;;;;1.72;74.83;100253.03;7350578;19;20040;-58
2022/12/13 04:21:21;;;;;;;0.10;0.10;;;;;;;1.68;74.58;100241.03;7356674;19;20023;-58
2022/12/13 04:23:47;;;;;;;0.10;0.10;;;;;;;1.54;74.70;100219.50;7359978;19;20441;-58
2022/12/13 04:26:12;;;;;;;0.00;0.00;;;;;;;1.59;74.68;100233.25;7356347;19;20018;-58
2022/12/13 04:28:38;;;;;;;0.10;0.10;;;;;;;1.60;74.60;100234.97;7358218;19;20697;-58
2022/12/13 04:31:03;;;;;;;0.10;0.10;;;;;;;1.59;74.70;100251.25;7353417;19;20022;-59
2022/12/13 04:33:31;;;;;;;0.00;0.00;;;;;;;1.56;74.55;100235.78;7358723;19;20745;-58
2022/12/13 04:35:56;;;;;;;;;;;;;;;1.73;74.52;100259.94;7357304;19;20069;-58
2022/12/13 04:38:22;;;;;;;0.00;0.00;;;;;;;1.57;74.54;100227.22;7355779;19;19931;-57
2022/12/13 04:40:47;;;;;;;0.00;0.00;;;;;;;1.56;74.94;100225.50;7354782;19;20010;-58
2022/12/13 04:43:13;;;;;;;0.10;0.10;;;;;;;1.65;74.94;100240.13;7353393;19;20014;-59
2022/12/13 04:45:38;;;;;;;0.00;0.00;;;;;;;1.56;74.88;100228.06;7353519;19;20018;-56
2022/12/13 04:48:04;;;;;;;0.08;0.08;;;;;;;1.63;74.90;100237.56;7354913;19;20010;-57
2022/12/13 04:50:29;;;;;;;0.10;0.10;;;;;;;1.69;74.78;100237.59;7354615;19;20086;-57
2022/12/13 04:52:55;;;;;;;0.00;0.00;;;;;;;1.68;74.83;100241.03;7350167;19;20010;-57
2022/12/13 04:55:20;;;;;;;0.00;0.00;;;;;;;1.56;74.63;100216.06;7361132;19;20367;-57
2022/12/13 04:57:45;;;;;;;0.10;0.10;;;;;;;1.71;74.72;100238.44;7359771;19;20082;-58
2022/12/13 05:00:14;;;;;;;0.00;0.00;;;;;;;1.75;74.60;100241.91;7355615;19;20023;-58
2022/12/13 05:02:40;;;;;;;0.10;0.10;;;;;;;1.79;74.69;100248.81;7359315;19;20436;-59
2022/12/13 05:05:07;;;;;;;0.00;0.00;;;;;;;1.73;74.91;100241.91;7359581;19;20048;-58
2022/12/13 05:07:33;;;;;;;0.00;0.00;;;;;;;1.73;74.87;100231.63;7359291;19;20892;-58
2022/12/13 05:09:58;;;;;;;0.00;0.00;;;;;;;1.84;74.91;100251.41;7357662;19;20462;-59
2022/12/13 05:12:24;;;;;;;0.00;0.00;;;;;;;1.83;74.69;100249.69;7354613;19;20015;-56
2022/12/13 05:14:50;;;;;;;0.00;0.00;;;;;;;1.93;74.76;100257.47;7359902;19;20006;-58
2022/12/13 05:17:16;;;;;;;0.10;0.10;;;;;;;1.84;74.56;100230.81;7356288;19;20029;-58
2022/12/13 05:19:41;;;;;;;0.10;0.10;;;;;;;1.97;74.52;100245.44;7353367;19;20010;-58
2022/12/13 05:22:14;;;;;;;0.00;0.00;;;;;;;2.06;74.76;100253.22;7356236;19;20475;-58
2022/12/13 05:24:43;;;;;;;0.00;0.00;;;;;;;1.97;74.28;100223.13;7359480;19;20017;-59
2022/12/13 05:27:10;;;;;;;0.00;0.00;;;;;;;2.10;74.39;100236.94;7357914;19;20672;-59
2022/12/13 05:29:36;;;;;;;0.03;0.03;;;;;;;2.13;74.31;100239.53;7359280;19;20011;-57
2022/12/13 05:32:01;;;;;;;0.05;0.05;;;;;;;2.03;74.34;100217.19;7357558;19;20021;-58
2022/12/13 05:34:27;;;;;;;0.10;0.10;;;;;;;1.74;74.42;100174.13;7354813;19;20557;-58
2022/12/13 05:36:52;;;;;;;0.00;0.00;;;;;;;2.14;74.33;100236.09;7357670;19;20974;-58
2022/12/13 05:39:18;;;;;;;0.00;0.00;;;;;;;1.99;74.12;100211.16;7357057;19;20019;-58
2022/12/13 05:41:43;;;;;;;0.00;0.00;;;;;;;2.10;74.09;100234.38;7357986;19;20117;-57
2022/12/13 05:44:09;;;;;;;0.00;0.00;;;;;;;1.97;74.20;100206.81;7354751;19;20031;-57
2022/12/13 05:46:35;;;;;;;0.00;0.00;;;;;;;2.07;74.06;100227.47;7353903;19;20039;-58
2022/12/13 05:49:01;;;;;;;0.10;0.10;;;;;;;1.98;74.18;100209.44;7355440;19;20015;-58
2022/12/13 05:51:26;;;;;;;0.10;0.10;;;;;;;2.07;74.20;100226.63;7358036;19;20010;-58
2022/12/13 05:53:51;;;;;;;0.10;0.10;;;;;;;1.95;74.31;100200.81;7358646;19;20018;-58
2022/12/13 05:56:17;;;;;;;0.00;0.00;;;;;;;2.03;74.52;100217.19;7353470;19;20018;-57
2022/12/13 05:58:42;;;;;;;0.10;0.10;;;;;;;1.95;74.15;100204.25;7358101;19;20002;-58
2022/12/13 06:01:13;;;;;;;0.10;0.10;;;;;;;1.61;74.32;100141.47;7356900;19;20011;-59
2022/12/13 06:03:39;;;;;;;0.00;0.00;;;;;;;2.11;74.33;100224.91;7358165;19;20632;-58
2022/12/13 06:06:07;;;;;;;0.10;0.10;;;;;;;2.12;74.45;100219.75;7353681;19;20015;-58
2022/12/13 06:08:33;;;;;;;0.10;0.10;;;;;;;2.11;74.21;100218.06;7355317;19;20035;-58
2022/12/13 06:11:00;;;;;;;0.05;0.05;;;;;;;2.01;74.27;100203.41;7357651;19;20018;-59
2022/12/13 06:13:26;;;;;;;0.10;0.10;;;;;;;2.15;74.15;100237.81;7365234;19;20011;-58
2022/12/13 06:15:52;;;;;;;0.10;0.10;;;;;;;2.03;74.44;100219.75;7363992;19;20037;-59
2022/12/13 06:18:17;;;;;;;0.00;0.00;;;;;;;1.76;74.21;100184.41;7361090;19;20023;-58
2022/12/13 06:20:43;;;;;;;0.10;0.10;;;;;;;2.06;74.11;100237.78;7365508;19;20010;-58
2022/12/13 06:23:09;;;;;;;0.10;0.10;;;;;;;2.06;74.18;100242.94;7359439;19;20018;-57
2022/12/13 06:25:37;;;;;;;0.10;0.10;;;;;;;2.09;74.41;100253.25;7363726;19;20780;-58
2022/12/13 06:28:03;;;;;;;0.05;0.05;;;;;;;1.91;73.99;100224.81;7361969;19;20018;-58
2022/12/13 06:30:29;;;;;;;0.10;0.10;;;;;;;2.01;74.14;100244.63;7364701;19;20035;-58
2022/12/13 06:32:55;;;;;;;0.10;0.10;;;;;;;1.88;74.40;100224.84;7362305;19;20090;-58
2022/12/13 06:35:20;;;;;;;0.00;0.00;;;;;;;1.87;74.20;100225.66;7362795;19;20865;-59
2022/12/13 06:37:50;;;;;;;0.10;0.10;;;;;;;1.79;74.46;100205.03;7363272;19;20178;-55
2022/12/13 06:40:16;;;;;;;0.10;0.10;;;;;;;1.91;74.42;100232.56;7363742;19;20017;-58
2022/12/13 06:42:41;;;;;;;0.10;0.10;;;;;;;1.88;74.50;100225.69;7362430;19;20085;-58
2022/12/13 06:45:07;;;;;;;0.00;0.00;;;;;;;1.83;74.67;100229.09;7362949;19;20629;-58
2022/12/13 06:47:32;;;;;;;0.00;0.00;;;;;;;1.76;74.31;100223.88;7361664;19;20832;-58
2022/12/13 06:49:58;;;;;;;0.10;0.10;;;;;;;1.85;74.33;100246.25;7362852;19;20018;-57
2022/12/13 06:52:23;;;;;;;0.00;0.00;;;;;;;1.87;74.33;100249.69;7361989;19;20035;-58
2022/12/13 06:54:49;;;;;;;0.10;0.10;;;;;;;1.85;74.73;100253.13;7359479;19;20014;-58
2022/12/13 06:57:14;;;;;;;0.00;0.00;;;;;;;1.74;74.57;100233.34;7362209;19;20011;-58
2022/12/13 06:59:40;;;;;;;0.00;0.00;;;;;;;1.74;74.85;100220.47;7354377;19;20027;-58
2022/12/13 07:02:07;;;;;;;0.00;0.00;;;;;;;1.76;74.79;100223.03;7363721;19;20101;-58
2022/12/13 07:04:32;;;;;;;0.03;0.03;;;;;;;1.88;74.83;100232.56;7361768;19;20733;-58
2022/12/13 07:06:58;;;;;;;0.10;0.10;;;;;;;1.94;74.67;100240.31;7362926;19;20014;-57
2022/12/13 07:09:23;;;;;;;0.00;0.00;;;;;;;1.84;74.26;100225.66;7359091;19;20018;-58
2022/12/13 07:11:48;;;;;;;0.00;0.00;;;;;;;1.96;74.47;100236.00;7363462;19;20110;-57
2022/12/13 07:14:14;;;;;;;0.10;0.10;;;;;;;2.00;74.75;100242.91;7363791;19;20007;-58
2022/12/13 07:16:39;;;;;;;0.00;0.00;;;;;;;1.85;74.43;100219.66;7358041;19;20029;-58
2022/12/13 07:19:05;;;;;;;0.00;0.00;;;;;;;1.61;74.17;100169.75;7357921;19;20006;-59
2022/12/13 07:21:31;;;;;;;0.03;0.03;;;;;;;2.04;74.50;100234.34;7349914;19;20031;-59
2022/12/13 07:23:57;;;;;;;0.03;0.03;;;;;;;2.06;74.45;100235.19;7359445;19;20010;-58
2022/12/13 07:26:23;;;;;;;0.03;0.03;;;;;;;2.06;74.63;100233.47;7358193;19;20021;-58
2022/12/13 07:28:49;;;;;;;0.10;0.10;;;;;;;1.96;74.41;100215.41;7358861;19;20017;-58
2022/12/13 07:31:14;;;;;;;0.00;0.00;;;;;;;2.07;74.29;100229.19;7362702;19;20588;-57
2022/12/13 07:33:40;;;;;;;0.10;0.10;;;;;;;2.09;74.28;100232.66;7360003;19;20034;-59
2022/12/13 07:36:10;;;;;;;0.10;0.10;;;;;;;2.11;74.59;100228.34;7360036;19;20034;-58
2022/12/13 07:38:36;;;;;;;0.00;0.00;;;;;;;2.04;74.55;100218.88;7354868;19;20010;-58
2022/12/13 07:41:04;;;;;;;0.10;0.10;;;;;;;1.89;74.50;100195.66;7362773;19;20011;-58
2022/12/13 07:43:29;;;;;;;0.10;0.10;;;;;;;2.00;74.29;100218.00;7363920;19;20010;-56
2022/12/13 07:45:59;;;;;;;0.10;0.10;;;;;;;2.02;74.17;100220.59;7347969;19;20046;-58
2022/12/13 07:48:25;;;;;;;0.10;0.10;;;;;;;2.01;74.24;100226.59;7362316;19;20010;-58
2022/12/13 07:50:51;;;;;;;0.00;0.00;;;;;;;1.98;74.34;100231.75;7362709;19;20046;-57
2022/12/13 07:53:16;;;;;;;0.10;0.10;;;;;;;1.62;74.19;100171.47;7357793;19;20018;-57
2022/12/13 07:55:42;;;;;;;0.00;0.00;;;;;;;1.94;74.14;100224.84;7360605;19;22356;-58
2022/12/13 07:58:10;;;;;;;0.00;0.00;;;;;;;1.90;74.30;100217.97;7357282;19;20011;-58
2022/12/13 08:00:37;;;;;;;0.00;0.00;;;;;;;1.85;74.23;100207.63;7359293;19;20442;-58
2022/12/13 08:03:04;;;;;;;0.10;0.10;;;;;;;1.97;74.64;100224.84;7361396;19;20010;-58
2022/12/13 08:05:30;;;;;;;0.00;0.00;;;;;;;1.91;74.39;100217.09;7357801;19;20480;-57
2022/12/13 08:07:55;;;;;;;0.10;0.10;;;;;;;1.86;74.30;100203.34;7364199;19;20002;-58
2022/12/13 08:10:21;;;;;;;0.03;0.03;;;;;;;1.96;74.35;100226.56;7359341;19;20066;-58
2022/12/13 08:12:46;;;;;;;0.00;0.00;;;;;;;1.77;74.30;100199.91;7364276;19;20746;-58
2022/12/13 08:15:12;;;;;;;0.05;0.05;;;;;;;1.87;74.12;100220.50;7356687;19;20022;-57
2022/12/13 08:17:37;;;;;;;0.00;0.00;;;;;;;1.92;74.55;100245.44;7358046;19;20013;-58
2022/12/13 08:20:04;;;;;;;0.10;0.10;;;;;;;1.89;74.36;100242.00;7362071;19;20727;-58
2022/12/13 08:22:29;;;;;;;0.00;0.00;;;;;;;1.79;74.37;100229.06;7362663;19;20753;-58
2022/12/13 08:24:55;;;;;;;0.00;0.00;;;;;;;1.83;74.26;100234.25;7362033;19;20023;-58
2022/12/13 08:27:20;;;;;;;0.08;0.08;;;;;;;1.71;74.36;100225.59;7357719;19;20109;-57
2022/12/13 08:29:45;;;;;;;0.00;0.00;;;;;;;1.86;74.43;100249.69;7353842;19;20030;-58
2022/12/13 08:32:12;;;;;;;0.00;0.00;;;;;;;1.76;74.46;100239.34;7356279;19;20006;-56
2022/12/13 08:34:38;;;;;;;0.00;0.00;;;;;;;1.84;74.49;100253.97;7359691;19;20043;-59
2022/12/13 08:37:04;;;;;;;0.10;0.10;;;;;;;1.84;74.78;100256.56;7361585;19;20006;-58
2022/12/13 08:39:34;;;;;;;0.10;0.10;;;;;;;1.65;74.75;100235.84;7362001;19;20014;-57
2022/12/13 08:42:01;;;;;;;0.10;0.10;;;;;;;1.51;74.45;100206.59;7359084;19;20015;-58
2022/12/13 08:44:26;;;;;;;0.00;0.00;;;;;;;1.80;74.32;100260.81;7347116;19;20014;-57
2022/12/13 08:46:52;;;;;;;0.10;0.10;;;;;;;1.65;74.41;100230.69;7360253;19;20006;-57
2022/12/13 08:49:17;;;;;;;0.10;0.10;;;;;;;1.81;74.69;100259.97;7364066;19;20021;-58
2022/12/13 08:51:43;;;;;;;0.10;0.10;;;;;;;1.62;74.55;100225.53;7360808;19;20040;-58
2022/12/13 08:54:08;;;;;;;0.00;0.00;;;;;;;1.75;74.92;100249.63;7363926;19;20006;-57
2022/12/13 08:56:33;;;;;;;0.00;0.00;;;;;;;1.75;74.37;100247.91;7356948;19;20002;-57
2022/12/13 08:58:59;;;;;;;0.10;0.10;;;;;;;1.69;74.74;100235.03;7363925;19;20090;-58
2022/12/13 09:01:24;;;;;;;0.10;0.10;;;;;;;1.78;74.63;100247.94;7357059;19;20023;-59
2022/12/13 09:03:50;;;;;;;0.00;0.00;;;;;;;1.78;74.49;100253.09;7363740;19;20022;-57
2022/12/13 09:06:16;;;;;;;0.10;0.10;;;;;;;1.83;74.42;100257.41;7360590;19;20090;-58
2022/12/13 09:08:43;;;;;;;0.00;0.00;;;;;;;1.88;74.43;100271.19;7360354;19;20014;-58
2022/12/13 09:11:09;;;;;;;0.00;0.00;;;;;;;1.89;74.63;100271.16;7357926;19;22005;-58
2022/12/13 09:13:39;;;;;;;0.10;0.10;;;;;;;1.77;74.70;100250.50;7362588;19;20717;-58
2022/12/13 09:16:08;;;;;;;0.10;0.10;;;;;;;1.89;74.53;100255.72;7361224;19;20519;-58
2022/12/13 09:18:34;;;;;;;0.00;0.00;;;;;;;1.89;74.49;100254.88;7361002;19;20014;-58
2022/12/13 09:21:00;;;;;;;0.00;0.00;;;;;;;1.99;74.65;100266.94;7356920;19;20010;-58
2022/12/13 09:23:25;;;;;;;0.10;0.10;;;;;;;1.96;74.53;100248.88;7358221;19;20026;-59
2022/12/13 09:25:59;;;;;;;0.10;0.10;;;;;;;1.95;74.71;100245.44;7361697;19;20348;-58
2022/12/13 09:28:25;;;;;;;0.10;0.10;;;;;;;2.02;74.37;100254.06;7360994;19;20047;-57
2022/12/13 09:30:51;;;;;;;0.03;0.03;;;;;;;2.04;74.22;100248.06;7361341;19;21380;-57
2022/12/13 09:33:16;;;;;;;0.10;0.10;;;;;;;1.99;74.38;100236.03;7359369;19;20007;-58
2022/12/13 09:35:42;;;;;;;0.10;0.10;;;;;;;2.09;74.51;100250.69;7361169;19;20038;-58
2022/12/13 09:38:08;;;;;;;0.00;0.00;;;;;;;2.05;74.61;100244.63;7352320;19;20013;-57
2022/12/13 09:40:37;;;;;;;0.10;0.10;;;;;;;2.08;74.30;100252.41;7356589;19;20003;-58
2022/12/13 09:43:04;;;;;;;0.10;0.10;;;;;;;2.11;74.19;100250.66;7345311;19;20123;-56
2022/12/13 09:45:29;;;;;;;0.10;0.10;;;;;;;2.08;74.24;100246.38;7355585;19;20093;-56
2022/12/13 09:47:57;;;;;;;0.00;0.00;;;;;;;2.15;74.61;100258.44;7363966;19;20988;-58
2022/12/13 09:50:27;;;;;;;0.10;0.10;;;;;;;2.09;74.64;100248.09;7361616;19;20018;-58
2022/12/13 09:52:53;;;;;;;0.08;0.08;;;;;;;2.11;74.10;100250.66;7364958;19;20612;-58
2022/12/13 09:55:21;;;;;;;0.00;0.00;;;;;;;2.25;74.57;100275.63;7362686;19;20018;-56
2022/12/13 09:57:48;;;;;;;0.10;0.10;;;;;;;2.22;74.41;100265.31;7362431;19;20023;-57
2022/12/13 10:00:16;;;;;;;0.10;0.10;;;;;;;2.27;74.15;100262.75;7362901;19;20030;-58
2022/12/13 10:02:51;;;;;;;0.10;0.10;;;;;;;2.17;74.22;100236.09;7363866;19;20086;-56
2022/12/13 10:05:31;;;;;;;0.00;0.00;;;;;;;2.38;74.08;100265.38;7364479;19;20335;-57
2022/12/13 10:08:03;;;;;;;0.00;0.00;;;;;;;2.46;74.15;100274.84;7364683;19;20569;-58
2022/12/13 10:10:28;;;;;;;0.00;0.00;;;;;;;2.43;74.20;100261.94;7362706;19;20006;-57
2022/12/13 10:13:02;;;;;;;0.00;0.00;;;;;;;2.55;73.93;100271.47;7357121;19;20549;-56
2022/12/13 10:15:30;;;;;;;0.10;0.10;;;;;;;2.38;74.05;100247.34;7365510;19;20070;-55
2022/12/13 10:17:56;;;;;;;0.00;0.00;;;;;;;2.59;74.18;100273.19;7365947;19;20026;-57
2022/12/13 10:20:27;;;;;;;0.08;0.08;;;;;;;2.66;74.07;100276.63;7360499;19;20070;-56
2022/12/13 10:22:53;;;;;;;0.10;0.10;;;;;;;2.52;73.85;100238.78;7367802;19;20034;-58
2022/12/13 10:25:49;;;;;;;0.10;0.10;;;;;;;2.77;73.70;100274.94;7362063;19;20011;-58
2022/12/13 10:28:18;;;;;;;0.03;0.03;;;;;;;2.68;73.86;100256.88;7255965;19;2004273;-56
2022/12/13 10:30:44;;;;;;;0.00;0.00;;;;;;;2.78;73.71;100271.50;7349334;19;20022;-56
2022/12/13 10:33:30;;;;;;;0.10;0.10;;;;;;;2.88;73.81;100267.22;7364901;19;20011;-58
2022/12/13 10:36:05;;;;;;;0.10;0.10;;;;;;;2.96;73.84;100270.69;7361405;19;20015;-58
2022/12/13 10:38:35;;;;;;;0.10;0.10;;;;;;;3.02;73.49;100270.69;7362002;19;20390;-59
2022/12/13 10:41:00;;;;;;;0.10;0.10;;;;;;;3.05;73.78;100270.69;7362058;19;20127;-55
2022/12/13 10:43:26;;;;;;;0.00;0.00;;;;;;;3.13;73.50;100274.13;7360768;19;20078;-55
2022/12/13 10:45:57;;;;;;;0.10;0.10;;;;;;;2.98;73.17;100243.16;7360223;19;20022;-56
2022/12/13 10:48:44;;;;;;;0.10;0.10;;;;;;;3.23;73.33;100270.69;7360297;19;20014;-58
2022/12/13 10:51:16;;;;;;;0.10;0.10;;;;;;;3.19;73.52;100253.47;7365136;19;20519;-57
2022/12/13 10:53:53;;;;;;;0.00;0.00;;;;;;;3.31;73.11;100263.81;7360752;19;20007;-58
2022/12/13 10:56:21;;;;;;;0.10;0.10;;;;;;;3.31;73.50;100263.81;7359869;19;20011;-58
2022/12/13 10:58:48;;;;;;;0.10;0.10;;;;;;;3.30;73.23;100256.09;7363261;19;20010;-57
2022/12/13 11:01:17;;;;;;;0.10;0.10;;;;;;;3.38;73.24;100275.84;7359563;19;20018;-59
2022/12/13 11:04:01;;;;;;;0.10;0.10;;;;;;;3.31;73.09;100256.06;7363675;19;20029;-57
2022/12/13 11:06:38;;;;;;;0.10;0.10;;;;;;;3.42;73.31;100270.69;7360297;19;20027;-58
2022/12/13 11:09:13;;;;;;;0.00;0.00;;;;;;;3.47;73.14;100264.66;7359864;19;20038;-57
2022/12/13 11:11:38;;;;;;;0.00;0.00;;;;;;;3.45;72.98;100265.50;7358260;19;20011;-57
2022/12/13 11:14:03;;;;;;;0.10;0.10;;;;;;;3.47;73.16;100258.66;7364495;19;20056;-58
2022/12/13 11:16:34;;;;;;;0.10;0.10;;;;;;;3.54;73.05;100271.53;7362542;19;20089;-56
2022/12/13 11:19:07;;;;;;;0.10;0.10;;;;;;;3.60;73.03;100265.53;7363012;19;20024;-54
2022/12/13 11:21:35;;;;;;;0.00;0.00;;;;;;;3.62;72.82;100268.97;7362048;19;20244;-54
2022/12/13 11:24:05;;;;;;;0.00;0.00;;;;;;;3.66;72.89;100262.06;7366054;19;20872;-58
2022/12/13 11:26:34;;;;;;;0.00;0.00;;;;;;;3.73;72.89;100261.19;7356972;19;20006;-57
2022/12/13 11:29:12;;;;;;;0.10;0.10;;;;;;;3.73;72.60;100263.78;7356668;19;23331;-56
2022/12/13 11:31:58;;;;;;;0.00;0.00;;;;;;;3.80;72.93;100274.09;7363009;19;20486;-54
2022/12/13 11:34:59;;;;;;;0.03;0.03;;;;;;;3.82;73.02;100262.03;7360514;19;20120;-56
2022/12/13 11:37:38;;;;;;;0.00;0.00;;;;;;;3.87;72.74;100249.97;7261777;19;2004179;-56
2022/12/13 11:40:23;;;;;;;0.00;0.00;;;;;;;3.92;73.01;100246.53;7364509;19;20020;-59
2022/12/13 11:42:57;;;;;;;0.10;0.10;;;;;;;3.95;72.97;100238.75;7361425;19;20754;-58
2022/12/13 11:45:43;;;;;;;0.00;0.00;;;;;;;3.98;72.72;100233.56;7358292;19;20017;-59